sensor_id;sensor_type;location;lat;lon;timestamp;pressure;altitude;pressure_sealevel;temperature;humidity
58295;BME280;45705;55.592;37.460;2023-04-23T00:01:26;98869.56;;;8.59;57.79
58295;BME280;45705;55.592;37.460;2023-04-23T00:03:56;98872.16;;;8.64;57.57
58295;BME280;45705;55.592;37.460;2023-04-23T00:06:22;98874.59;;;8.52;58.13
58295;BME280;45705;55.592;37.460;2023-04-23T00:08:53;98870.56;;;8.63;57.78
58295;BME280;45705;55.592;37.460;2023-04-23T00:11:19;98880.78;;;8.66;57.84
58295;BME280;45705;55.592;37.460;2023-04-23T00:13:46;98867.94;;;8.58;57.98
58295;BME280;45705;55.592;37.460;2023-04-23T00:16:14;98867.25;;;8.53;57.98
58295;BME280;45705;55.592;37.460;2023-04-23T00:18:40;98877.19;;;8.57;57.96
58295;BME280;45705;55.592;37.460;2023-04-23T00:21:05;98880.78;;;8.53;58.18
58295;BME280;45705;55.592;37.460;2023-04-23T00:23:33;98875.34;;;8.39;58.70
58295;BME280;45705;55.592;37.460;2023-04-23T00:25:59;98884.22;;;8.44;59.06
58295;BME280;45705;55.592;37.460;2023-04-23T00:28:25;98879.41;;;8.41;59.55
58295;BME280;45705;55.592;37.460;2023-04-23T00:30:50;98889.41;;;8.41;59.42
58295;BME280;45705;55.592;37.460;2023-04-23T00:33:16;98880.75;;;8.39;59.62
58295;BME280;45705;55.592;37.460;2023-04-23T00:35:42;98874.78;;;8.42;59.37
58295;BME280;45705;55.592;37.460;2023-04-23T00:38:08;98887.03;;;8.53;59.29
58295;BME280;45705;55.592;37.460;2023-04-23T00:40:34;98891.59;;;8.39;60.25
58295;BME280;45705;55.592;37.460;2023-04-23T00:42:59;98896.53;;;8.37;59.66
58295;BME280;45705;55.592;37.460;2023-04-23T00:45:26;98899.44;;;8.40;60.01
58295;BME280;45705;55.592;37.460;2023-04-23T00:47:52;98903.56;;;8.38;60.35
58295;BME280;45705;55.592;37.460;2023-04-23T00:50:18;98897.50;;;8.27;60.52
58295;BME280;45705;55.592;37.460;2023-04-23T00:52:45;98896.22;;;8.24;60.84
58295;BME280;45705;55.592;37.460;2023-04-23T00:55:10;98892.50;;;8.20;60.50
58295;BME280;45705;55.592;37.460;2023-04-23T00:57:37;98894.56;;;8.09;60.71
58295;BME280;45705;55.592;37.460;2023-04-23T01:00:04;98898.56;;;7.98;61.76
58295;BME280;45705;55.592;37.460;2023-04-23T01:02:31;98900.97;;;8.00;61.87
58295;BME280;45705;55.592;37.460;2023-04-23T01:05:00;98909.22;;;8.08;60.35
58295;BME280;45705;55.592;37.460;2023-04-23T01:07:26;98896.81;;;8.21;59.98
58295;BME280;45705;55.592;37.460;2023-04-23T01:09:52;98904.34;;;8.24;60.20
58295;BME280;45705;55.592;37.460;2023-04-23T01:12:18;98898.41;;;8.22;60.33
58295;BME280;45705;55.592;37.460;2023-04-23T01:14:44;98906.38;;;8.00;61.43
58295;BME280;45705;55.592;37.460;2023-04-23T01:17:10;98906.19;;;7.96;61.61
58295;BME280;45705;55.592;37.460;2023-04-23T01:19:37;98908.16;;;7.91;62.04
58295;BME280;45705;55.592;37.460;2023-04-23T01:22:09;98902.03;;;7.85;62.37
58295;BME280;45705;55.592;37.460;2023-04-23T01:24:35;98910.41;;;8.02;61.57
58295;BME280;45705;55.592;37.460;2023-04-23T01:27:01;98906.72;;;8.12;60.63
58295;BME280;45705;55.592;37.460;2023-04-23T01:29:28;98905.13;;;8.11;60.02
58295;BME280;45705;55.592;37.460;2023-04-23T01:31:55;98912.72;;;8.09;60.28
58295;BME280;45705;55.592;37.460;2023-04-23T01:34:22;98903.41;;;8.15;60.41
58295;BME280;45705;55.592;37.460;2023-04-23T01:36:47;98904.00;;;8.12;60.46
58295;BME280;45705;55.592;37.460;2023-04-23T01:39:14;98914.28;;;7.96;61.99
58295;BME280;45705;55.592;37.460;2023-04-23T01:41:40;98915.88;;;7.83;63.75
58295;BME280;45705;55.592;37.460;2023-04-23T01:44:06;98917.75;;;7.83;63.96
58295;BME280;45705;55.592;37.460;2023-04-23T01:46:31;98918.16;;;7.76;64.67
58295;BME280;45705;55.592;37.460;2023-04-23T01:48:57;98915.38;;;7.81;63.95
58295;BME280;45705;55.592;37.460;2023-04-23T01:51:25;98918.94;;;7.77;64.06
58295;BME280;45705;55.592;37.460;2023-04-23T01:53:51;98907.69;;;7.69;63.82
58295;BME280;45705;55.592;37.460;2023-04-23T01:56:19;98911.97;;;7.89;63.32
58295;BME280;45705;55.592;37.460;2023-04-23T01:58:47;98917.41;;;7.89;63.42
58295;BME280;45705;55.592;37.460;2023-04-23T02:01:13;98919.75;;;7.77;64.05
58295;BME280;45705;55.592;37.460;2023-04-23T02:03:38;98917.03;;;7.77;63.55
58295;BME280;45705;55.592;37.460;2023-04-23T02:06:04;98928.97;;;7.76;63.92
58295;BME280;45705;55.592;37.460;2023-04-23T02:08:30;98916.53;;;7.75;63.87
58295;BME280;45705;55.592;37.460;2023-04-23T02:10:56;98912.78;;;7.90;63.84
58295;BME280;45705;55.592;37.460;2023-04-23T02:13:22;98922.72;;;7.62;64.17
58295;BME280;45705;55.592;37.460;2023-04-23T02:15:47;98928.47;;;7.74;62.64
58295;BME280;45705;55.592;37.460;2023-04-23T02:18:13;98916.75;;;7.60;63.58
58295;BME280;45705;55.592;37.460;2023-04-23T02:20:39;98928.69;;;7.59;64.24
58295;BME280;45705;55.592;37.460;2023-04-23T02:23:06;98930.00;;;7.80;64.04
58295;BME280;45705;55.592;37.460;2023-04-23T02:25:32;98935.44;;;7.94;63.05
58295;BME280;45705;55.592;37.460;2023-04-23T02:27:59;98939.31;;;8.07;62.47
58295;BME280;45705;55.592;37.460;2023-04-23T02:30:29;98945.31;;;8.04;62.35
58295;BME280;45705;55.592;37.460;2023-04-23T02:32:55;98939.22;;;7.79;63.10
58295;BME280;45705;55.592;37.460;2023-04-23T02:35:21;98940.13;;;7.88;62.90
58295;BME280;45705;55.592;37.460;2023-04-23T02:37:47;98939.38;;;8.02;62.74
58295;BME280;45705;55.592;37.460;2023-04-23T02:40:13;98933.19;;;8.15;61.79
58295;BME280;45705;55.592;37.460;2023-04-23T02:42:38;98939.63;;;8.19;61.57
58295;BME280;45705;55.592;37.460;2023-04-23T02:45:05;98934.16;;;8.38;60.85
58295;BME280;45705;55.592;37.460;2023-04-23T02:47:31;98940.63;;;8.56;60.04
58295;BME280;45705;55.592;37.460;2023-04-23T02:49:56;98932.41;;;8.61;59.66
58295;BME280;45705;55.592;37.460;2023-04-23T02:52:23;98938.53;;;8.81;58.89
58295;BME280;45705;55.592;37.460;2023-04-23T02:54:49;98940.03;;;8.87;58.61
58295;BME280;45705;55.592;37.460;2023-04-23T02:57:15;98939.13;;;9.05;58.40
58295;BME280;45705;55.592;37.460;2023-04-23T02:59:41;98952.69;;;9.05;57.94
58295;BME280;45705;55.592;37.460;2023-04-23T03:02:07;98944.13;;;8.98;58.15
58295;BME280;45705;55.592;37.460;2023-04-23T03:04:33;98953.03;;;9.26;57.07
58295;BME280;45705;55.592;37.460;2023-04-23T03:06:59;98947.56;;;9.54;55.89
58295;BME280;45705;55.592;37.460;2023-04-23T03:09:24;98938.88;;;9.66;54.81
58295;BME280;45705;55.592;37.460;2023-04-23T03:11:50;98952.28;;;9.85;53.72
58295;BME280;45705;55.592;37.460;2023-04-23T03:14:16;98954.56;;;9.92;54.21
58295;BME280;45705;55.592;37.460;2023-04-23T03:16:41;98937.00;;;10.20;52.41
58295;BME280;45705;55.592;37.460;2023-04-23T03:19:07;98945.31;;;11.61;49.25
58295;BME280;45705;55.592;37.460;2023-04-23T03:21:33;98943.94;;;13.14;44.19
58295;BME280;45705;55.592;37.460;2023-04-23T03:23:59;98947.53;;;12.68;44.60
58295;BME280;45705;55.592;37.460;2023-04-23T03:26:25;98951.97;;;14.37;40.77
58295;BME280;45705;55.592;37.460;2023-04-23T03:28:51;98957.19;;;13.54;43.90
58295;BME280;45705;55.592;37.460;2023-04-23T03:31:17;98959.09;;;15.36;39.08
58295;BME280;45705;55.592;37.460;2023-04-23T03:33:43;98948.84;;;15.33;38.33
58295;BME280;45705;55.592;37.460;2023-04-23T03:36:09;98969.25;;;14.29;40.27
58295;BME280;45705;55.592;37.460;2023-04-23T03:38:36;98969.66;;;13.85;42.02
58295;BME280;45705;55.592;37.460;2023-04-23T03:41:03;98983.22;;;13.22;43.09
58295;BME280;45705;55.592;37.460;2023-04-23T03:43:29;98981.88;;;12.69;45.10
58295;BME280;45705;55.592;37.460;2023-04-23T03:46:01;98978.91;;;12.91;44.94
58295;BME280;45705;55.592;37.460;2023-04-23T03:48:28;98985.88;;;12.71;45.97
58295;BME280;45705;55.592;37.460;2023-04-23T03:50:54;98985.28;;;12.57;45.31
58295;BME280;45705;55.592;37.460;2023-04-23T03:53:40;98984.94;;;13.65;42.43
58295;BME280;45705;55.592;37.460;2023-04-23T03:56:25;98982.16;;;14.07;41.23
58295;BME280;45705;55.592;37.460;2023-04-23T03:59:03;98976.63;;;15.60;39.09
58295;BME280;45705;55.592;37.460;2023-04-23T04:01:29;98981.72;;;16.14;37.47
58295;BME280;45705;55.592;37.460;2023-04-23T04:03:57;98987.09;;;16.23;38.44
58295;BME280;45705;55.592;37.460;2023-04-23T04:06:24;98983.91;;;16.81;36.03
58295;BME280;45705;55.592;37.460;2023-04-23T04:08:49;98987.78;;;15.92;38.14
58295;BME280;45705;55.592;37.460;2023-04-23T04:11:15;98982.03;;;17.68;35.13
58295;BME280;45705;55.592;37.460;2023-04-23T04:13:41;98974.16;;;19.41;32.31
58295;BME280;45705;55.592;37.460;2023-04-23T04:16:06;98968.69;;;20.76;29.07
58295;BME280;45705;55.592;37.460;2023-04-23T04:18:32;98973.09;;;22.17;26.74
58295;BME280;45705;55.592;37.460;2023-04-23T04:20:58;98979.91;;;21.53;26.85
58295;BME280;45705;55.592;37.460;2023-04-23T04:23:24;98983.53;;;20.27;28.20
58295;BME280;45705;55.592;37.460;2023-04-23T04:25:49;98991.72;;;20.20;27.94
58295;BME280;45705;55.592;37.460;2023-04-23T04:28:16;99000.88;;;19.37;29.41
58295;BME280;45705;55.592;37.460;2023-04-23T04:30:42;98995.00;;;19.15;29.61
58295;BME280;45705;55.592;37.460;2023-04-23T04:33:08;99000.53;;;18.26;30.53
58295;BME280;45705;55.592;37.460;2023-04-23T04:35:34;99001.63;;;17.67;31.25
58295;BME280;45705;55.592;37.460;2023-04-23T04:37:59;99000.53;;;18.69;29.55
58295;BME280;45705;55.592;37.460;2023-04-23T04:40:26;99003.84;;;19.51;27.87
58295;BME280;45705;55.592;37.460;2023-04-23T04:42:52;99006.31;;;18.83;28.97
58295;BME280;45705;55.592;37.460;2023-04-23T04:45:19;99004.31;;;18.41;29.11
58295;BME280;45705;55.592;37.460;2023-04-23T04:47:45;99015.63;;;17.62;30.63
58295;BME280;45705;55.592;37.460;2023-04-23T04:50:11;99014.03;;;18.35;30.16
58295;BME280;45705;55.592;37.460;2023-04-23T04:52:36;99015.06;;;18.89;29.33
58295;BME280;45705;55.592;37.460;2023-04-23T04:55:02;99009.97;;;19.14;29.12
58295;BME280;45705;55.592;37.460;2023-04-23T04:57:29;99007.66;;;19.43;28.46
58295;BME280;45705;55.592;37.460;2023-04-23T04:59:54;99005.56;;;19.36;28.35
58295;BME280;45705;55.592;37.460;2023-04-23T05:02:21;99007.63;;;19.70;28.60
58295;BME280;45705;55.592;37.460;2023-04-23T05:04:47;99012.97;;;20.16;27.45
58295;BME280;45705;55.592;37.460;2023-04-23T05:07:13;99018.06;;;19.80;27.86
58295;BME280;45705;55.592;37.460;2023-04-23T05:09:39;99012.69;;;20.24;27.34
58295;BME280;45705;55.592;37.460;2023-04-23T05:12:05;99020.78;;;19.26;28.83
58295;BME280;45705;55.592;37.460;2023-04-23T05:14:32;99023.25;;;19.58;28.96
58295;BME280;45705;55.592;37.460;2023-04-23T05:16:58;99023.38;;;19.42;28.88
58295;BME280;45705;55.592;37.460;2023-04-23T05:19:23;99031.03;;;19.03;28.96
58295;BME280;45705;55.592;37.460;2023-04-23T05:21:49;99038.03;;;18.77;29.61
58295;BME280;45705;55.592;37.460;2023-04-23T05:24:15;99042.38;;;18.78;29.98
58295;BME280;45705;55.592;37.460;2023-04-23T05:26:40;99035.31;;;19.23;29.01
58295;BME280;45705;55.592;37.460;2023-04-23T05:29:06;99040.41;;;18.98;29.59
58295;BME280;45705;55.592;37.460;2023-04-23T05:31:32;99041.63;;;19.01;29.63
58295;BME280;45705;55.592;37.460;2023-04-23T05:33:57;99045.00;;;18.28;30.65
58295;BME280;45705;55.592;37.460;2023-04-23T05:36:23;99041.50;;;18.32;30.96
58295;BME280;45705;55.592;37.460;2023-04-23T05:38:49;99045.50;;;18.15;31.11
58295;BME280;45705;55.592;37.460;2023-04-23T05:41:15;99055.56;;;18.07;31.80
58295;BME280;45705;55.592;37.460;2023-04-23T05:43:40;99053.81;;;18.18;31.47
58295;BME280;45705;55.592;37.460;2023-04-23T05:46:06;99055.09;;;18.63;30.83
58295;BME280;45705;55.592;37.460;2023-04-23T05:48:32;99051.69;;;18.70;30.69
58295;BME280;45705;55.592;37.460;2023-04-23T05:50:58;99049.47;;;18.99;30.63
58295;BME280;45705;55.592;37.460;2023-04-23T05:53:24;99048.38;;;19.53;29.67
58295;BME280;45705;55.592;37.460;2023-04-23T05:55:50;99048.34;;;21.12;27.81
58295;BME280;45705;55.592;37.460;2023-04-23T05:58:15;99054.97;;;21.00;27.43
58295;BME280;45705;55.592;37.460;2023-04-23T06:00:44;99046.06;;;20.76;27.64
58295;BME280;45705;55.592;37.460;2023-04-23T06:03:09;99054.72;;;21.71;26.64
58295;BME280;45705;55.592;37.460;2023-04-23T06:05:35;99050.97;;;20.97;27.59
58295;BME280;45705;55.592;37.460;2023-04-23T06:08:03;99055.47;;;21.61;26.16
58295;BME280;45705;55.592;37.460;2023-04-23T06:10:28;99051.78;;;20.98;26.76
58295;BME280;45705;55.592;37.460;2023-04-23T06:12:54;99061.59;;;21.40;26.46
58295;BME280;45705;55.592;37.460;2023-04-23T06:15:20;99059.53;;;22.55;25.10
58295;BME280;45705;55.592;37.460;2023-04-23T06:17:47;99053.63;;;21.79;25.13
58295;BME280;45705;55.592;37.460;2023-04-23T06:20:12;99059.75;;;22.21;24.43
58295;BME280;45705;55.592;37.460;2023-04-23T06:22:38;99059.09;;;22.46;24.28
58295;BME280;45705;55.592;37.460;2023-04-23T06:25:04;99069.25;;;22.20;24.14
58295;BME280;45705;55.592;37.460;2023-04-23T06:27:30;99067.75;;;22.33;24.57
58295;BME280;45705;55.592;37.460;2023-04-23T06:30:03;99067.03;;;22.58;24.08
58295;BME280;45705;55.592;37.460;2023-04-23T06:32:29;99072.91;;;22.38;24.63
58295;BME280;45705;55.592;37.460;2023-04-23T06:34:55;99073.44;;;22.91;24.22
58295;BME280;45705;55.592;37.460;2023-04-23T06:37:20;99076.22;;;22.76;24.75
58295;BME280;45705;55.592;37.460;2023-04-23T06:39:46;99080.97;;;21.95;25.93
58295;BME280;45705;55.592;37.460;2023-04-23T06:42:12;99064.66;;;22.53;25.05
58295;BME280;45705;55.592;37.460;2023-04-23T06:44:54;99065.19;;;23.45;24.60
58295;BME280;45705;55.592;37.460;2023-04-23T06:47:19;99075.88;;;23.53;24.19
58295;BME280;45705;55.592;37.460;2023-04-23T06:49:45;99071.94;;;23.47;24.15
58295;BME280;45705;55.592;37.460;2023-04-23T06:52:11;99085.31;;;22.80;24.89
58295;BME280;45705;55.592;37.460;2023-04-23T06:54:36;99084.91;;;21.87;25.71
58295;BME280;45705;55.592;37.460;2023-04-23T06:57:02;99084.44;;;22.48;25.43
58295;BME280;45705;55.592;37.460;2023-04-23T06:59:28;99086.59;;;22.10;25.99
58295;BME280;45705;55.592;37.460;2023-04-23T07:01:55;99083.81;;;23.08;25.02
58295;BME280;45705;55.592;37.460;2023-04-23T07:04:21;99081.34;;;22.81;25.40
58295;BME280;45705;55.592;37.460;2023-04-23T07:06:46;99086.09;;;22.70;24.85
58295;BME280;45705;55.592;37.460;2023-04-23T07:09:12;99090.91;;;23.02;24.71
58295;BME280;45705;55.592;37.460;2023-04-23T07:11:38;99092.34;;;22.56;25.13
58295;BME280;45705;55.592;37.460;2023-04-23T07:14:04;99092.88;;;22.94;24.67
58295;BME280;45705;55.592;37.460;2023-04-23T07:16:30;99092.16;;;22.17;25.53
58295;BME280;45705;55.592;37.460;2023-04-23T07:18:59;99095.97;;;21.87;26.30
58295;BME280;45705;55.592;37.460;2023-04-23T07:21:26;99092.38;;;22.53;25.38
58295;BME280;45705;55.592;37.460;2023-04-23T07:23:56;99092.22;;;22.24;25.39
58295;BME280;45705;55.592;37.460;2023-04-23T07:26:24;99090.50;;;22.01;25.46
58295;BME280;45705;55.592;37.460;2023-04-23T07:28:52;99094.94;;;22.17;24.82
58295;BME280;45705;55.592;37.460;2023-04-23T07:31:17;99092.25;;;21.65;25.75
58295;BME280;45705;55.592;37.460;2023-04-23T07:33:44;99096.41;;;22.80;24.24
58295;BME280;45705;55.592;37.460;2023-04-23T07:36:10;99090.94;;;23.09;23.86
58295;BME280;45705;55.592;37.460;2023-04-23T07:38:35;99098.63;;;22.42;24.63
58295;BME280;45705;55.592;37.460;2023-04-23T07:41:09;99087.72;;;22.86;24.32
58295;BME280;45705;55.592;37.460;2023-04-23T07:43:35;99097.91;;;22.53;24.94
58295;BME280;45705;55.592;37.460;2023-04-23T07:46:00;99087.78;;;23.29;24.06
58295;BME280;45705;55.592;37.460;2023-04-23T07:48:26;99091.75;;;23.42;23.73
58295;BME280;45705;55.592;37.460;2023-04-23T07:50:52;99090.16;;;23.37;23.43
58295;BME280;45705;55.592;37.460;2023-04-23T07:53:18;99088.50;;;22.90;23.96
58295;BME280;45705;55.592;37.460;2023-04-23T07:55:44;99090.94;;;23.16;23.37
58295;BME280;45705;55.592;37.460;2023-04-23T07:58:10;99097.31;;;23.21;23.48
58295;BME280;45705;55.592;37.460;2023-04-23T08:00:35;99071.13;;;23.65;22.10
58295;BME280;45705;55.592;37.460;2023-04-23T08:03:01;99088.50;;;22.97;22.92
58295;BME280;45705;55.592;37.460;2023-04-23T08:05:27;99082.56;;;22.88;22.74
58295;BME280;45705;55.592;37.460;2023-04-23T08:07:52;99092.97;;;22.17;23.21
58295;BME280;45705;55.592;37.460;2023-04-23T08:10:18;99089.66;;;21.94;22.94
58295;BME280;45705;55.592;37.460;2023-04-23T08:12:43;99086.69;;;21.61;23.43
58295;BME280;45705;55.592;37.460;2023-04-23T08:15:10;99099.06;;;21.30;23.97
58295;BME280;45705;55.592;37.460;2023-04-23T08:17:39;99104.63;;;20.93;23.36
58295;BME280;45705;55.592;37.460;2023-04-23T08:20:05;99093.06;;;21.24;22.64
58295;BME280;45705;55.592;37.460;2023-04-23T08:22:32;99094.88;;;21.47;22.15
58295;BME280;45705;55.592;37.460;2023-04-23T08:24:57;99095.50;;;21.30;23.22
58295;BME280;45705;55.592;37.460;2023-04-23T08:27:23;99086.97;;;21.46;23.13
58295;BME280;45705;55.592;37.460;2023-04-23T08:29:49;99089.22;;;21.33;23.15
58295;BME280;45705;55.592;37.460;2023-04-23T08:32:14;99086.53;;;20.99;23.24
58295;BME280;45705;55.592;37.460;2023-04-23T08:34:40;99086.69;;;21.13;22.97
58295;BME280;45705;55.592;37.460;2023-04-23T08:37:05;99080.28;;;21.54;23.20
58295;BME280;45705;55.592;37.460;2023-04-23T08:39:33;99082.03;;;21.73;22.69
58295;BME280;45705;55.592;37.460;2023-04-23T08:42:04;99079.53;;;22.16;22.33
58295;BME280;45705;55.592;37.460;2023-04-23T08:44:35;99073.31;;;21.22;23.11
58295;BME280;45705;55.592;37.460;2023-04-23T08:47:03;99078.59;;;21.38;22.66
58295;BME280;45705;55.592;37.460;2023-04-23T08:49:33;99075.09;;;21.45;22.38
58295;BME280;45705;55.592;37.460;2023-04-23T08:52:14;99074.84;;;21.16;22.10
58295;BME280;45705;55.592;37.460;2023-04-23T08:54:45;99069.31;;;21.16;22.21
58295;BME280;45705;55.592;37.460;2023-04-23T08:57:13;99075.25;;;20.77;22.39
58295;BME280;45705;55.592;37.460;2023-04-23T08:59:41;99063.13;;;20.52;22.93
58295;BME280;45705;55.592;37.460;2023-04-23T09:02:07;99064.84;;;20.63;22.71
58295;BME280;45705;55.592;37.460;2023-04-23T09:04:37;99067.44;;;20.19;23.14
58295;BME280;45705;55.592;37.460;2023-04-23T09:07:05;99072.88;;;19.58;24.12
58295;BME280;45705;55.592;37.460;2023-04-23T09:09:36;99071.75;;;19.36;24.51
58295;BME280;45705;55.592;37.460;2023-04-23T09:12:03;99068.75;;;19.45;24.42
58295;BME280;45705;55.592;37.460;2023-04-23T09:14:29;99077.88;;;19.49;24.89
58295;BME280;45705;55.592;37.460;2023-04-23T09:16:55;99070.06;;;19.78;24.59
58295;BME280;45705;55.592;37.460;2023-04-23T09:19:21;99052.91;;;19.92;24.00
58295;BME280;45705;55.592;37.460;2023-04-23T09:21:53;99070.25;;;19.92;24.37
58295;BME280;45705;55.592;37.460;2023-04-23T09:24:23;99062.66;;;20.46;23.92
58295;BME280;45705;55.592;37.460;2023-04-23T09:26:50;99072.41;;;20.36;23.59
58295;BME280;45705;55.592;37.460;2023-04-23T09:29:20;99071.25;;;20.07;24.09
58295;BME280;45705;55.592;37.460;2023-04-23T09:31:53;99067.25;;;20.04;23.83
58295;BME280;45705;55.592;37.460;2023-04-23T09:34:22;99059.75;;;20.35;23.76
58295;BME280;45705;55.592;37.460;2023-04-23T09:36:50;99028.63;;;20.72;23.29
58295;BME280;45705;55.592;37.460;2023-04-23T09:39:18;99042.00;;;20.70;23.18
58295;BME280;45705;55.592;37.460;2023-04-23T09:41:44;99050.09;;;20.90;23.72
58295;BME280;45705;55.592;37.460;2023-04-23T09:44:11;99055.13;;;20.77;23.32
58295;BME280;45705;55.592;37.460;2023-04-23T09:46:42;99048.91;;;20.87;23.03
58295;BME280;45705;55.592;37.460;2023-04-23T09:49:09;99057.00;;;20.35;23.69
58295;BME280;45705;55.592;37.460;2023-04-23T09:51:39;99045.59;;;20.74;23.17
58295;BME280;45705;55.592;37.460;2023-04-23T09:54:16;99048.44;;;20.81;23.13
58295;BME280;45705;55.592;37.460;2023-04-23T09:56:53;99047.69;;;20.84;23.15
58295;BME280;45705;55.592;37.460;2023-04-23T09:59:26;99059.84;;;20.12;23.96
58295;BME280;45705;55.592;37.460;2023-04-23T10:01:53;99059.41;;;19.53;24.45
58295;BME280;45705;55.592;37.460;2023-04-23T10:04:20;99062.63;;;19.32;24.76
58295;BME280;45705;55.592;37.460;2023-04-23T10:07:00;99047.94;;;19.51;24.57
58295;BME280;45705;55.592;37.460;2023-04-23T10:09:28;99043.34;;;19.85;24.51
58295;BME280;45705;55.592;37.460;2023-04-23T10:11:58;99039.94;;;20.26;23.56
58295;BME280;45705;55.592;37.460;2023-04-23T10:14:25;99044.38;;;20.34;23.54
58295;BME280;45705;55.592;37.460;2023-04-23T10:16:55;99039.94;;;19.69;23.96
58295;BME280;45705;55.592;37.460;2023-04-23T10:19:22;99042.84;;;20.06;23.94
58295;BME280;45705;55.592;37.460;2023-04-23T10:21:55;99042.84;;;20.06;23.91
58295;BME280;45705;55.592;37.460;2023-04-23T10:24:26;99032.72;;;20.18;23.76
58295;BME280;45705;55.592;37.460;2023-04-23T10:26:58;99038.25;;;20.52;23.05
58295;BME280;45705;55.592;37.460;2023-04-23T10:29:30;99040.81;;;20.34;23.80
58295;BME280;45705;55.592;37.460;2023-04-23T10:31:58;99041.47;;;20.23;23.85
58295;BME280;45705;55.592;37.460;2023-04-23T10:34:25;99044.78;;;20.36;23.35
58295;BME280;45705;55.592;37.460;2023-04-23T10:36:52;99028.84;;;20.22;23.30
58295;BME280;45705;55.592;37.460;2023-04-23T10:39:20;99043.34;;;19.85;24.01
58295;BME280;45705;55.592;37.460;2023-04-23T10:41:47;99030.34;;;19.59;24.32
58295;BME280;45705;55.592;37.460;2023-04-23T10:44:13;99024.63;;;19.45;24.74
58295;BME280;45705;55.592;37.460;2023-04-23T10:46:51;99024.72;;;19.52;24.14
58295;BME280;45705;55.592;37.460;2023-04-23T10:49:17;99030.19;;;19.48;24.11
58295;BME280;45705;55.592;37.460;2023-04-23T10:51:46;99027.75;;;19.97;23.73
58295;BME280;45705;55.592;37.460;2023-04-23T10:54:15;99021.41;;;19.96;23.73
58295;BME280;45705;55.592;37.460;2023-04-23T10:56:42;99018.44;;;20.09;24.13
58295;BME280;45705;55.592;37.460;2023-04-23T10:59:19;99029.25;;;19.67;23.84
58295;BME280;45705;55.592;37.460;2023-04-23T11:01:46;99025.34;;;19.68;24.38
58295;BME280;45705;55.592;37.460;2023-04-23T11:04:22;99012.19;;;20.15;23.65
58295;BME280;45705;55.592;37.460;2023-04-23T11:11:53;99012.81;;;20.01;23.46
58295;BME280;45705;55.592;37.460;2023-04-23T11:14:19;99009.84;;;20.17;23.50
58295;BME280;45705;55.592;37.460;2023-04-23T11:16:47;98993.78;;;20.26;23.31
58295;BME280;45705;55.592;37.460;2023-04-23T11:19:13;98998.53;;;20.26;23.50
58295;BME280;45705;55.592;37.460;2023-04-23T11:22:02;99004.75;;;20.19;23.38
58295;BME280;45705;55.592;37.460;2023-04-23T11:24:31;99006.34;;;19.90;23.70
58295;BME280;45705;55.592;37.460;2023-04-23T11:26:58;99000.25;;;19.77;24.19
58295;BME280;45705;55.592;37.460;2023-04-23T11:29:26;99005.34;;;19.72;23.76
58295;BME280;45705;55.592;37.460;2023-04-23T11:31:53;99001.72;;;19.41;24.58
58295;BME280;45705;55.592;37.460;2023-04-23T11:34:19;99009.13;;;19.63;23.93
58295;BME280;45705;55.592;37.460;2023-04-23T11:36:47;99006.47;;;19.44;24.07
58295;BME280;45705;55.592;37.460;2023-04-23T11:39:13;98992.25;;;19.42;23.97
58295;BME280;45705;55.592;37.460;2023-04-23T11:41:39;99001.25;;;19.65;23.93
58295;BME280;45705;55.592;37.460;2023-04-23T11:44:07;99003.72;;;19.71;23.99
58295;BME280;45705;55.592;37.460;2023-04-23T11:46:34;99000.75;;;19.56;24.52
58295;BME280;45705;55.592;37.460;2023-04-23T11:48:59;98994.84;;;19.58;24.46
58295;BME280;45705;55.592;37.460;2023-04-23T11:51:26;98991.41;;;19.91;23.86
58295;BME280;45705;55.592;37.460;2023-04-23T11:53:51;98993.66;;;19.55;24.95
58295;BME280;45705;55.592;37.460;2023-04-23T11:56:18;98998.31;;;19.78;24.11
58295;BME280;45705;55.592;37.460;2023-04-23T11:58:44;98990.53;;;19.87;24.31
58295;BME280;45705;55.592;37.460;2023-04-23T12:01:10;98991.53;;;20.02;24.15
58295;BME280;45705;55.592;37.460;2023-04-23T12:03:39;98993.81;;;19.96;23.93
58295;BME280;45705;55.592;37.460;2023-04-23T12:06:05;98981.84;;;19.85;24.36
58295;BME280;45705;55.592;37.460;2023-04-23T12:08:34;98980.44;;;19.98;23.87
58295;BME280;45705;55.592;37.460;2023-04-23T12:11:07;98979.94;;;19.89;24.24
58295;BME280;45705;55.592;37.460;2023-04-23T12:13:32;98985.69;;;19.77;24.66
58295;BME280;45705;55.592;37.460;2023-04-23T12:16:03;98984.28;;;19.90;24.32
58295;BME280;45705;55.592;37.460;2023-04-23T12:18:39;98985.72;;;20.11;23.90
58295;BME280;45705;55.592;37.460;2023-04-23T12:21:08;98980.38;;;19.91;24.05
58295;BME280;45705;55.592;37.460;2023-04-23T12:23:36;98976.34;;;20.19;23.44
58295;BME280;45705;55.592;37.460;2023-04-23T12:26:02;98977.19;;;19.89;23.87
58295;BME280;45705;55.592;37.460;2023-04-23T12:28:29;98982.56;;;19.78;23.85
58295;BME280;45705;55.592;37.460;2023-04-23T12:30:59;98982.63;;;19.82;23.90
58295;BME280;45705;55.592;37.460;2023-04-23T12:33:29;98966.66;;;19.68;23.76
58295;BME280;45705;55.592;37.460;2023-04-23T12:35:55;98980.38;;;19.91;23.88
58295;BME280;45705;55.592;37.460;2023-04-23T12:40:58;98982.03;;;19.99;23.81
58295;BME280;45705;55.592;37.460;2023-04-23T12:43:25;98977.31;;;20.00;24.02
58295;BME280;45705;55.592;37.460;2023-04-23T12:45:53;98978.19;;;20.08;24.02
58295;BME280;45705;55.592;37.460;2023-04-23T12:48:19;98969.34;;;19.91;23.70
58295;BME280;45705;55.592;37.460;2023-04-23T12:50:45;98963.00;;;19.34;24.47
58295;BME280;45705;55.592;37.460;2023-04-23T12:53:11;98959.22;;;19.45;24.42
58295;BME280;45705;55.592;37.460;2023-04-23T12:55:37;98957.38;;;19.53;24.54
58295;BME280;45705;55.592;37.460;2023-04-23T12:58:07;98963.31;;;19.55;24.34
58295;BME280;45705;55.592;37.460;2023-04-23T13:00:33;98964.16;;;19.59;24.42